createdAt,value
2019-01-22T00:05:58.520Z,49.88
2019-01-22T00:12:01.303Z,47.25
2019-01-22T00:18:03.676Z,50.73
2019-01-22T00:24:06.099Z,51.63
2019-01-22T00:30:11.924Z,51.77
2019-01-22T00:36:14.458Z,46.40
2019-01-22T00:42:16.866Z,47.67
2019-01-22T00:48:19.098Z,48.08
2019-01-22T00:54:21.343Z,50.35
2019-01-22T01:00:28.842Z,48.98
2019-01-22T01:06:31.075Z,46.50
2019-01-22T01:12:33.368Z,47.65
2019-01-22T01:18:35.654Z,49.40
2019-01-22T01:24:37.871Z,53.60
2019-01-22T01:30:40.306Z,52.95
2019-01-22T01:36:42.906Z,51.92
2019-01-22T01:42:45.841Z,54.35
2019-01-22T01:48:47.993Z,51.00
2019-01-22T01:54:52.067Z,49.67
2019-01-22T02:00:54.447Z,52.75
2019-01-22T02:06:57.155Z,48.05
2019-01-22T02:13:12.142Z,53.20
2019-01-22T02:19:33.586Z,48.75
2019-01-22T02:26:09.773Z,51.48
2019-01-22T02:33:18.387Z,47.15
2019-01-22T02:39:46.513Z,48.45
2019-01-22T02:46:26.918Z,53.85
2019-01-22T02:53:15.008Z,50.85
2019-01-22T02:59:51.893Z,49.65
2019-01-22T03:06:27.113Z,48.00
2019-01-22T03:12:40.550Z,49.90
2019-01-22T03:19:22.476Z,48.15
2019-01-22T03:25:53.404Z,50.20
2019-01-22T03:32:39.251Z,49.00
2019-01-22T03:39:17.212Z,52.98
2019-01-22T03:45:50.466Z,48.17
2019-01-22T03:52:24.012Z,48.70
2019-01-22T03:58:26.307Z,46.02
2019-01-22T04:04:28.570Z,51.50
2019-01-22T04:10:37.286Z,53.68
2019-01-22T04:16:39.758Z,47.65
2019-01-22T04:22:58.339Z,48.65
2019-01-22T04:29:28.250Z,50.43
2019-01-22T04:35:54.067Z,50.83
2019-01-22T04:42:41.030Z,51.40
2019-01-22T04:49:52.443Z,53.50
2019-01-22T04:56:42.838Z,50.25
2019-01-22T05:03:10.878Z,55.52
2019-01-22T05:10:15.282Z,53.05
2019-01-22T05:17:02.779Z,52.33
2019-01-22T05:23:58.228Z,53.63
2019-01-22T05:30:44.250Z,54.55
2019-01-22T05:37:15.054Z,55.95
2019-01-22T05:43:57.660Z,57.88
2019-01-22T05:50:37.841Z,49.58
2019-01-22T05:57:07.374Z,53.30
2019-01-22T06:03:39.275Z,51.25
2019-01-22T06:10:23.367Z,52.65
2019-01-22T06:17:19.085Z,52.83
2019-01-22T06:24:01.993Z,57.58
2019-01-22T06:30:42.424Z,52.95
2019-01-22T06:37:09.729Z,55.17
2019-01-22T06:43:46.734Z,52.27
2019-01-22T06:50:34.472Z,50.88
2019-01-22T06:57:05.070Z,54.23
2019-01-22T07:03:55.338Z,48.05
2019-01-22T07:10:10.630Z,52.60
2019-01-22T07:16:51.911Z,55.48
2019-01-22T07:23:51.398Z,51.42
2019-01-22T07:30:35.716Z,49.88
2019-01-22T07:37:08.363Z,58.33
2019-01-22T07:43:52.514Z,53.38
2019-01-22T07:50:31.733Z,58.13
2019-01-22T07:57:13.627Z,58.38
2019-01-22T08:03:51.573Z,56.25
2019-01-22T08:10:43.909Z,53.52
2019-01-22T08:17:37.075Z,56.02
2019-01-22T08:24:10.963Z,56.45
2019-01-22T08:30:49.811Z,55.23
2019-01-22T08:37:25.292Z,55.30
2019-01-22T08:44:08.951Z,60.23
2019-01-22T08:50:39.374Z,60.12
2019-01-22T08:56:58.042Z,59.15
2019-01-22T09:03:30.495Z,54.48
2019-01-22T09:09:52.301Z,55.40
2019-01-22T09:16:47.489Z,54.77
2019-01-22T09:23:38.241Z,58.35
2019-01-22T09:29:57.127Z,56.35
2019-01-22T09:36:31.336Z,54.88
2019-01-22T09:42:33.582Z,58.38
2019-01-22T09:48:37.395Z,56.50
2019-01-22T09:54:39.775Z,57.33
2019-01-22T10:00:41.947Z,62.27
2019-01-22T10:06:44.410Z,62.30
2019-01-22T10:12:48.265Z,63.17
2019-01-22T10:18:51.755Z,65.20
2019-01-22T10:24:54.159Z,61.05
2019-01-22T10:30:56.917Z,69.22
2019-01-22T10:36:59.269Z,64.60
2019-01-22T10:43:01.683Z,68.78
2019-01-22T10:49:04.348Z,66.37
2019-01-22T10:55:08.371Z,61.20
2019-01-22T11:01:11.219Z,66.85
2019-01-22T11:07:14.960Z,67.05
2019-01-22T11:13:17.184Z,65.60
2019-01-22T11:19:19.428Z,74.32
2019-01-22T11:25:22.331Z,64.32
2019-01-22T11:31:29.509Z,66.53
2019-01-22T11:37:31.770Z,72.00
2019-01-22T11:43:34.366Z,73.80
2019-01-22T11:49:37.778Z,65.42
2019-01-22T11:55:40.071Z,66.75
2019-01-22T12:01:42.996Z,70.42
2019-01-22T12:07:45.882Z,64.60
2019-01-22T12:13:53.980Z,66.40
2019-01-22T12:19:52.295Z,65.28
2019-01-22T12:25:57.378Z,68.42
2019-01-22T12:32:02.125Z,70.95
2019-01-22T12:38:04.727Z,67.65
2019-01-22T12:44:06.844Z,75.40
2019-01-22T12:50:10.719Z,73.22
2019-01-22T12:56:12.995Z,74.37
2019-01-22T13:02:15.488Z,74.45
2019-01-22T13:08:17.600Z,79.82
2019-01-22T13:14:20.327Z,72.62
2019-01-22T13:20:22.718Z,78.50
2019-01-22T13:26:25.091Z,77.00
2019-01-22T13:32:27.401Z,71.53
2019-01-22T13:38:30.199Z,68.42
2019-01-22T13:44:32.287Z,74.03
2019-01-22T13:50:35.819Z,69.47
2019-01-22T13:56:38.054Z,77.90
2019-01-22T14:02:40.290Z,80.17
2019-01-22T14:08:43.707Z,74.72
2019-01-22T14:14:45.946Z,77.58
2019-01-22T14:20:49.543Z,74.27
2019-01-22T14:26:51.839Z,74.45
2019-01-22T14:32:54.188Z,78.60
2019-01-22T14:38:56.638Z,81.85
2019-01-22T14:44:58.751Z,74.47
2019-01-22T14:51:01.567Z,74.95
2019-01-22T14:57:03.754Z,72.15
2019-01-22T15:03:05.959Z,77.42
2019-01-22T15:09:08.276Z,77.72
2019-01-22T15:15:12.650Z,78.37
2019-01-22T15:21:15.107Z,82.25
2019-01-22T15:27:36.693Z,78.72
2019-01-22T15:33:39.016Z,74.97
2019-01-22T15:39:44.714Z,74.17
2019-01-22T15:45:48.031Z,76.07
2019-01-22T15:51:53.375Z,78.65
2019-01-22T15:57:56.829Z,80.87
2019-01-22T16:04:00.066Z,78.00
2019-01-22T16:10:04.683Z,76.60
2019-01-22T16:16:08.654Z,75.22
2019-01-22T16:22:12.160Z,75.72
2019-01-22T16:28:14.346Z,77.27
2019-01-22T16:34:16.786Z,77.45
2019-01-22T16:40:21.074Z,76.30
2019-01-22T16:46:23.475Z,72.75
2019-01-22T16:52:25.725Z,78.50
2019-01-22T16:58:29.306Z,118.57
2019-01-22T17:04:31.724Z,159.67
2019-01-22T17:10:53.415Z,115.08
2019-01-22T17:16:55.674Z,96.17
2019-01-22T17:23:01.917Z,85.05
2019-01-22T17:29:02.163Z,75.17
2019-01-22T17:35:05.725Z,81.47
2019-01-22T17:41:11.393Z,77.47
2019-01-22T17:47:14.070Z,76.67
2019-01-22T17:53:16.351Z,77.25
2019-01-22T17:59:19.045Z,69.58
2019-01-22T18:05:21.420Z,63.40
2019-01-22T18:11:23.632Z,74.10
2019-01-22T18:17:25.984Z,72.53
2019-01-22T18:23:30.591Z,102.58
2019-01-22T18:29:32.926Z,88.22
2019-01-22T18:35:38.389Z,83.75
2019-01-22T18:41:42.882Z,77.90
2019-01-22T18:47:46.233Z,81.80
2019-01-22T18:53:48.470Z,83.97
2019-01-22T18:59:50.904Z,83.85
2019-01-22T19:05:53.745Z,87.80
2019-01-22T19:11:55.972Z,87.37
2019-01-22T19:17:58.400Z,85.15
2019-01-22T19:24:01.698Z,91.25
2019-01-22T19:30:08.062Z,96.63
2019-01-22T19:36:10.231Z,96.82
2019-01-22T19:42:14.387Z,99.77
2019-01-22T19:48:16.991Z,92.75
2019-01-22T19:54:19.497Z,99.13
2019-01-22T20:00:27.138Z,99.42
2019-01-22T20:06:29.467Z,147.70
2019-01-22T20:12:31.667Z,165.95
2019-01-22T20:18:34.143Z,167.62
2019-01-22T20:24:36.641Z,176.75
2019-01-22T20:30:39.835Z,173.32
2019-01-22T20:36:43.678Z,196.60
2019-01-22T20:42:48.243Z,187.40
2019-01-22T20:48:50.767Z,204.60
2019-01-22T20:54:53.565Z,195.43
2019-01-22T21:00:55.850Z,192.55
2019-01-22T21:06:58.552Z,203.32
2019-01-22T21:13:01.804Z,191.73
2019-01-22T21:19:04.055Z,174.62
2019-01-22T21:25:25.830Z,186.80
2019-01-22T21:31:28.207Z,180.50
2019-01-22T21:37:30.563Z,174.32
2019-01-22T21:43:35.519Z,169.30
2019-01-22T21:49:37.832Z,182.50
2019-01-22T21:55:40.124Z,179.82
2019-01-22T22:01:42.471Z,160.32
2019-01-22T22:07:44.638Z,167.72
2019-01-22T22:13:47.190Z,182.65
2019-01-22T22:19:50.563Z,175.53
2019-01-22T22:25:52.983Z,177.70
2019-01-22T22:31:55.286Z,177.97
2019-01-22T22:37:57.514Z,183.00
2019-01-22T22:44:01.258Z,172.75
2019-01-22T22:50:05.585Z,165.45
2019-01-22T22:56:07.739Z,179.42
2019-01-22T23:02:11.096Z,173.93
2019-01-22T23:08:13.258Z,180.97
2019-01-22T23:14:15.472Z,171.02
2019-01-22T23:20:17.752Z,165.37
2019-01-22T23:26:19.882Z,165.88
2019-01-22T23:32:22.156Z,167.55
2019-01-22T23:38:24.339Z,160.52
2019-01-22T23:44:26.746Z,144.32
2019-01-22T23:50:50.167Z,119.55
2019-01-22T23:56:52.434Z,116.60
